createdAt,value
2019-04-14T00:01:06.536Z,41.90
2019-04-14T00:03:55.005Z,39.07
2019-04-14T00:06:26.977Z,38.80
2019-04-14T00:08:56.554Z,43.07
2019-04-14T00:11:26.447Z,36.87
2019-04-14T00:13:56.718Z,37.77
2019-04-14T00:16:27.026Z,36.67
2019-04-14T00:18:59.776Z,40.00
2019-04-14T00:21:30.386Z,36.50
2019-04-14T00:24:00.857Z,36.80
2019-04-14T00:26:33.518Z,40.90
2019-04-14T00:29:04.587Z,37.00
2019-04-14T00:31:37.104Z,38.23
2019-04-14T00:34:20.351Z,38.30
2019-04-14T00:37:03.444Z,36.53
2019-04-14T00:39:38.495Z,38.03
2019-04-14T00:42:25.549Z,37.73
2019-04-14T00:44:58.230Z,36.67
2019-04-14T00:47:51.782Z,35.87
2019-04-14T00:50:12.848Z,38.43
2019-04-14T00:52:42.350Z,37.33
2019-04-14T00:55:12.243Z,39.90
2019-04-14T00:57:44.761Z,38.73
2019-04-14T01:00:17.307Z,40.40
2019-04-14T01:02:55.726Z,40.50
2019-04-14T01:05:36.023Z,41.20
2019-04-14T01:08:07.261Z,42.07
2019-04-14T01:10:36.927Z,43.27
2019-04-14T01:13:09.341Z,44.13
2019-04-14T01:15:48.120Z,42.97
2019-04-14T01:18:09.968Z,43.43
2019-04-14T01:20:43.065Z,44.17
2019-04-14T01:23:13.350Z,45.43
2019-04-14T01:25:45.241Z,40.10
2019-04-14T01:28:15.860Z,41.17
2019-04-14T01:30:46.256Z,42.60
2019-04-14T01:33:16.895Z,47.53
2019-04-14T01:35:48.795Z,46.20
2019-04-14T01:38:19.001Z,42.10
2019-04-14T01:40:49.556Z,45.67
2019-04-14T01:43:19.638Z,42.03
2019-04-14T01:46:02.399Z,42.77
2019-04-14T01:48:21.219Z,42.17
2019-04-14T01:51:07.081Z,38.57
2019-04-14T01:53:59.651Z,45.43
2019-04-14T01:56:42.947Z,39.50
2019-04-14T01:59:13.047Z,45.83
2019-04-14T02:01:44.089Z,42.00
2019-04-14T02:04:13.877Z,41.03
2019-04-14T02:06:44.133Z,42.57
2019-04-14T02:09:14.059Z,43.43
2019-04-14T02:11:44.997Z,41.47
2019-04-14T02:14:14.827Z,41.60
2019-04-14T02:16:50.087Z,40.40
2019-04-14T02:19:15.506Z,43.40
2019-04-14T02:21:45.650Z,42.23
2019-04-14T02:24:15.707Z,43.83
2019-04-14T02:26:45.926Z,44.53
2019-04-14T02:29:16.738Z,45.90
2019-04-14T02:32:17.363Z,43.90
2019-04-14T02:35:00.200Z,44.93
2019-04-14T02:39:54.100Z,45.10
2019-04-14T02:42:26.150Z,45.20
2019-04-14T02:49:51.385Z,47.07
2019-04-14T02:52:30.091Z,50.90
2019-04-14T02:54:59.991Z,47.43
2019-04-14T02:57:23.027Z,48.10
2019-04-14T02:59:58.539Z,51.63
2019-04-14T03:04:57.965Z,54.13
2019-04-14T03:07:30.640Z,52.23
2019-04-14T03:09:52.444Z,56.53
2019-04-14T03:12:36.190Z,51.20
2019-04-14T03:15:01.039Z,54.57
2019-04-14T03:18:13.932Z,64.13
2019-04-14T03:20:47.253Z,52.70
2019-04-14T03:23:23.717Z,53.97
2019-04-14T03:26:05.057Z,56.90
2019-04-14T03:28:46.099Z,55.83
2019-04-14T03:37:19.663Z,56.70
2019-04-14T03:43:48.311Z,55.87
2019-04-14T03:46:49.385Z,50.73
2019-04-14T03:49:06.093Z,57.43
2019-04-14T03:51:46.830Z,53.73
2019-04-14T03:54:20.654Z,53.37
2019-04-14T03:56:48.997Z,55.80
2019-04-14T03:59:19.597Z,50.20
2019-04-14T04:01:50.075Z,52.37
2019-04-14T04:04:20.538Z,55.10
2019-04-14T04:06:50.989Z,53.17
2019-04-14T04:09:23.469Z,51.80
2019-04-14T04:11:54.037Z,52.43
2019-04-14T04:14:24.624Z,50.07
2019-04-14T04:17:21.870Z,52.07
2019-04-14T04:20:13.359Z,48.83
2019-04-14T04:23:03.002Z,54.40
2019-04-14T04:25:51.534Z,46.13
2019-04-14T04:28:49.658Z,49.33
2019-04-14T04:31:34.977Z,44.90
2019-04-14T04:34:23.603Z,49.33
2019-04-14T04:37:21.409Z,49.50
2019-04-14T04:39:51.910Z,50.90
2019-04-14T04:42:21.945Z,49.13
2019-04-14T04:44:51.468Z,46.67
2019-04-14T04:47:21.038Z,53.97
2019-04-14T04:49:51.195Z,48.50
2019-04-14T04:52:21.236Z,45.53
2019-04-14T04:54:51.650Z,46.80
2019-04-14T04:57:22.090Z,50.28
2019-04-14T04:59:51.773Z,49.03
2019-04-14T05:02:22.078Z,50.12
2019-04-14T05:04:52.579Z,48.47
2019-04-14T05:07:23.085Z,48.60
2019-04-14T05:10:15.309Z,45.52
2019-04-14T05:12:48.375Z,45.20
2019-04-14T05:15:40.335Z,42.97
2019-04-14T05:18:15.532Z,44.60
2019-04-14T05:20:46.323Z,44.07
2019-04-14T05:23:16.932Z,43.77
2019-04-14T05:25:47.381Z,40.33
2019-04-14T05:28:17.848Z,42.37
2019-04-14T05:30:48.304Z,40.53
2019-04-14T05:33:18.573Z,42.33
2019-04-14T05:35:48.886Z,38.87
2019-04-14T05:38:19.094Z,42.67
2019-04-14T05:40:49.558Z,44.73
2019-04-14T05:43:30.392Z,43.65
2019-04-14T05:45:50.427Z,39.27
2019-04-14T05:48:20.415Z,43.60
2019-04-14T05:50:51.169Z,42.50
2019-04-14T05:53:21.752Z,45.10
2019-04-14T05:55:52.440Z,43.43
2019-04-14T05:58:23.121Z,41.67
2019-04-14T06:00:53.376Z,42.17
2019-04-14T06:03:23.460Z,41.80
2019-04-14T06:05:53.144Z,42.63
2019-04-14T06:08:22.635Z,42.50
2019-04-14T06:10:52.070Z,46.43
2019-04-14T06:13:21.568Z,44.33
2019-04-14T06:15:51.082Z,42.50
2019-04-14T06:18:20.555Z,40.23
2019-04-14T06:20:50.024Z,39.57
2019-04-14T06:23:19.479Z,39.67
2019-04-14T06:25:49.173Z,42.53
2019-04-14T06:28:18.710Z,37.80
2019-04-14T06:31:20.053Z,36.43
2019-04-14T06:33:54.182Z,40.73
2019-04-14T06:36:39.538Z,36.60
2019-04-14T06:39:15.578Z,38.53
2019-04-14T06:41:45.003Z,40.63
2019-04-14T06:44:14.428Z,39.07
2019-04-14T06:46:43.939Z,35.67
2019-04-14T06:49:13.404Z,38.10
2019-04-14T06:51:43.054Z,35.67
2019-04-14T06:54:12.614Z,35.60
2019-04-14T06:56:42.098Z,34.37
2019-04-14T06:59:11.601Z,37.37
2019-04-14T07:01:41.062Z,35.80
2019-04-14T07:04:10.554Z,32.50
2019-04-14T07:06:40.040Z,38.47
2019-04-14T07:09:09.475Z,36.27
2019-04-14T07:11:38.992Z,35.27
2019-04-14T07:14:08.472Z,34.43
2019-04-14T07:16:37.920Z,32.73
2019-04-14T07:19:07.375Z,31.27
2019-04-14T07:21:36.862Z,32.00
2019-04-14T07:24:06.385Z,30.97
2019-04-14T07:26:35.912Z,31.00
2019-04-14T07:29:05.390Z,32.67
2019-04-14T07:32:05.747Z,32.63
2019-04-14T07:35:03.225Z,32.90
2019-04-14T07:37:50.006Z,30.67
2019-04-14T07:40:25.498Z,29.30
2019-04-14T07:43:05.211Z,31.60
2019-04-14T07:45:56.673Z,32.80
2019-04-14T07:48:29.907Z,30.03
2019-04-14T07:51:18.909Z,29.93
2019-04-14T07:54:00.715Z,29.60
2019-04-14T07:56:47.527Z,30.60
2019-04-14T07:59:33.912Z,33.33
2019-04-14T08:02:28.465Z,33.57
2019-04-14T08:05:01.624Z,33.17
2019-04-14T08:07:31.158Z,30.57
2019-04-14T08:10:00.646Z,28.40
2019-04-14T08:12:30.151Z,30.47
2019-04-14T08:14:59.691Z,29.90
2019-04-14T08:17:29.286Z,34.27
2019-04-14T08:19:58.877Z,30.80
2019-04-14T08:22:28.396Z,31.33
2019-04-14T08:24:57.873Z,28.73
2019-04-14T08:27:27.834Z,28.90
2019-04-14T08:29:57.264Z,28.83
2019-04-14T08:32:26.795Z,28.27
2019-04-14T08:34:56.328Z,31.10
2019-04-14T08:37:25.823Z,28.50
2019-04-14T08:39:55.445Z,30.43
2019-04-14T08:42:42.241Z,26.47
2019-04-14T08:45:20.056Z,27.60
2019-04-14T08:48:17.286Z,27.17
2019-04-14T08:50:52.495Z,27.67
2019-04-14T08:53:47.045Z,30.50
2019-04-14T08:56:37.617Z,23.43
2019-04-14T08:59:43.266Z,28.10
2019-04-14T09:02:31.765Z,22.87
2019-04-14T09:05:20.214Z,25.93
2019-04-14T09:08:20.710Z,25.40
2019-04-14T09:10:53.371Z,24.97
2019-04-14T09:13:22.848Z,23.93
2019-04-14T09:15:52.314Z,28.73
2019-04-14T09:18:21.783Z,24.27
2019-04-14T09:20:52.498Z,23.60
2019-04-14T09:23:22.263Z,30.30
2019-04-14T09:25:51.799Z,24.67
2019-04-14T09:28:21.335Z,29.27
2019-04-14T09:30:50.898Z,25.97
2019-04-14T09:33:20.531Z,23.27
2019-04-14T09:35:50.121Z,24.67
2019-04-14T09:38:19.641Z,23.33
2019-04-14T09:40:49.345Z,23.03
2019-04-14T09:43:18.863Z,24.97
2019-04-14T09:45:48.349Z,27.30
2019-04-14T09:48:17.936Z,24.37
2019-04-14T09:50:47.373Z,25.23
2019-04-14T09:53:16.928Z,23.20
2019-04-14T09:55:46.455Z,25.00
2019-04-14T09:58:15.982Z,27.27
2019-04-14T10:00:45.853Z,24.73
2019-04-14T10:03:15.406Z,23.80
2019-04-14T10:05:44.865Z,25.40
2019-04-14T10:08:14.394Z,29.43
2019-04-14T10:10:43.952Z,25.90
2019-04-14T10:13:13.489Z,23.97
2019-04-14T10:15:43.494Z,23.77
2019-04-14T10:18:13.051Z,24.03
2019-04-14T10:20:42.616Z,23.77
2019-04-14T10:23:12.296Z,25.03
2019-04-14T10:25:41.906Z,23.00
2019-04-14T10:28:11.464Z,25.00
2019-04-14T10:30:40.961Z,24.27
2019-04-14T10:33:10.480Z,22.50
2019-04-14T10:35:40.039Z,26.53
2019-04-14T10:38:09.574Z,25.50
2019-04-14T10:40:39.193Z,24.10
2019-04-14T10:43:08.722Z,26.50
2019-04-14T10:45:38.318Z,28.70
2019-04-14T10:48:07.900Z,24.37
2019-04-14T10:50:37.567Z,23.20
2019-04-14T10:53:07.110Z,22.03
2019-04-14T10:55:36.661Z,24.07
2019-04-14T10:58:06.500Z,25.03
2019-04-14T11:00:36.319Z,26.13
2019-04-14T11:03:05.855Z,22.20
2019-04-14T11:06:03.187Z,23.87
2019-04-14T11:08:32.731Z,24.97
2019-04-14T11:11:02.289Z,23.10
2019-04-14T11:13:31.731Z,22.80
2019-04-14T11:16:01.113Z,25.50
2019-04-14T11:18:30.426Z,22.30
2019-04-14T11:20:59.781Z,24.63
2019-04-14T11:23:29.153Z,22.20
2019-04-14T11:25:58.556Z,25.73
2019-04-14T11:28:28.171Z,21.40
2019-04-14T11:30:57.454Z,21.10
2019-04-14T11:33:54.565Z,22.30
2019-04-14T11:36:45.870Z,22.37
2019-04-14T11:39:17.568Z,22.97
2019-04-14T11:41:47.892Z,23.60
2019-04-14T11:44:17.490Z,23.30
2019-04-14T11:46:47.312Z,25.10
2019-04-14T11:49:17.751Z,25.03
2019-04-14T11:51:55.144Z,24.60
2019-04-14T11:54:18.367Z,21.83
2019-04-14T11:56:48.167Z,27.53
2019-04-14T11:59:19.417Z,23.87
2019-04-14T12:02:16.507Z,22.93
2019-04-14T12:04:55.170Z,20.87
2019-04-14T12:07:41.881Z,24.07
2019-04-14T12:10:24.984Z,24.17
2019-04-14T12:12:54.455Z,21.10
2019-04-14T12:15:25.025Z,23.97
2019-04-14T12:17:54.554Z,18.83
2019-04-14T12:20:29.066Z,23.30
2019-04-14T12:22:59.488Z,24.40
2019-04-14T12:25:28.983Z,21.23
2019-04-14T12:28:02.924Z,20.93
2019-04-14T12:30:33.350Z,18.60
2019-04-14T12:33:02.836Z,19.67
2019-04-14T12:35:33.424Z,20.87
2019-04-14T12:38:02.911Z,22.70
2019-04-14T12:40:32.469Z,21.23
2019-04-14T12:43:08.707Z,19.50
2019-04-14T12:45:57.096Z,19.47
2019-04-14T12:48:57.743Z,23.87
2019-04-14T12:51:31.364Z,17.13
2019-04-14T12:54:00.987Z,20.40
2019-04-14T12:56:30.564Z,19.57
2019-04-14T12:59:19.023Z,17.30
2019-04-14T13:02:06.959Z,21.33
2019-04-14T13:04:36.600Z,21.07
2019-04-14T13:07:06.079Z,20.63
2019-04-14T13:09:36.011Z,20.10
2019-04-14T13:12:06.049Z,21.20
2019-04-14T13:14:37.217Z,20.47
2019-04-14T13:17:11.162Z,18.27
2019-04-14T13:19:41.012Z,19.30
2019-04-14T13:22:10.589Z,18.03
2019-04-14T13:24:40.137Z,18.70
2019-04-14T13:27:12.425Z,20.40
2019-04-14T13:29:42.008Z,21.77
2019-04-14T13:32:11.851Z,19.97
2019-04-14T13:34:41.478Z,21.65
2019-04-14T13:37:11.095Z,19.90
2019-04-14T13:39:40.643Z,20.87
2019-04-14T13:42:10.351Z,20.40
2019-04-14T13:44:39.906Z,23.50
2019-04-14T13:47:13.642Z,22.37
2019-04-14T13:49:43.289Z,18.87
2019-04-14T13:52:13.617Z,21.60
2019-04-14T13:54:43.116Z,22.90
2019-04-14T13:57:12.816Z,19.77
2019-04-14T13:59:42.335Z,19.63
2019-04-14T14:02:11.787Z,21.90
2019-04-14T14:04:44.452Z,20.53
2019-04-14T14:07:14.589Z,20.70
2019-04-14T14:09:44.106Z,22.43
2019-04-14T14:12:44.698Z,21.07
2019-04-14T14:15:31.558Z,21.45
2019-04-14T14:18:25.758Z,25.27
2019-04-14T14:21:12.909Z,18.95
2019-04-14T14:23:56.418Z,20.23
2019-04-14T14:26:27.173Z,20.15
2019-04-14T14:28:56.721Z,19.98
2019-04-14T14:31:26.668Z,25.55
2019-04-14T14:33:56.119Z,23.47
2019-04-14T14:36:25.572Z,22.45
2019-04-14T14:38:55.035Z,21.43
2019-04-14T14:41:27.794Z,20.13
2019-04-14T14:43:57.815Z,20.53
2019-04-14T14:46:45.289Z,20.90
2019-04-14T14:49:36.531Z,20.23
2019-04-14T14:52:08.294Z,19.43
2019-04-14T14:54:37.791Z,21.07
2019-04-14T14:57:07.379Z,22.73
2019-04-14T14:59:36.950Z,22.87
2019-04-14T15:02:06.470Z,26.63
2019-04-14T15:04:36.019Z,23.30
2019-04-14T15:07:05.724Z,20.63
2019-04-14T15:09:35.385Z,21.03
2019-04-14T15:12:05.016Z,20.37
2019-04-14T15:14:35.249Z,20.60
2019-04-14T15:17:08.189Z,19.87
2019-04-14T15:19:41.085Z,21.03
2019-04-14T15:22:15.334Z,23.83
2019-04-14T15:24:45.866Z,21.53
2019-04-14T15:27:16.975Z,21.50
2019-04-14T15:29:48.326Z,18.30
2019-04-14T15:32:19.001Z,20.77
2019-04-14T15:34:48.936Z,24.63
2019-04-14T15:37:18.480Z,21.23
2019-04-14T15:39:48.045Z,20.90
2019-04-14T15:42:17.818Z,16.43
2019-04-14T15:44:47.355Z,17.43
2019-04-14T15:47:16.942Z,16.67
2019-04-14T15:49:46.508Z,17.90
2019-04-14T15:52:16.143Z,17.40
2019-04-14T15:54:46.137Z,19.60
2019-04-14T15:57:40.736Z,15.43
2019-04-14T16:00:35.316Z,16.80
2019-04-14T16:03:24.782Z,13.80
2019-04-14T16:06:17.373Z,15.27
2019-04-14T16:08:57.379Z,14.97
2019-04-14T16:11:45.872Z,13.70
2019-04-14T16:14:34.357Z,15.07
2019-04-14T16:17:31.663Z,17.07
2019-04-14T16:20:06.297Z,12.90
2019-04-14T16:22:38.914Z,14.63
2019-04-14T16:25:08.069Z,12.07
2019-04-14T16:27:56.517Z,14.97
2019-04-14T16:30:44.976Z,11.80
2019-04-14T16:33:28.660Z,11.80
2019-04-14T16:35:58.558Z,13.43
2019-04-14T16:38:28.227Z,14.43
2019-04-14T16:40:57.694Z,14.30
2019-04-14T16:43:27.244Z,13.67
2019-04-14T16:45:57.024Z,16.10
2019-04-14T16:48:26.579Z,18.57
2019-04-14T16:50:56.281Z,14.47
2019-04-14T16:53:31.192Z,15.43
2019-04-14T16:56:25.471Z,14.80
2019-04-14T16:58:57.346Z,13.70
2019-04-14T17:01:45.816Z,14.60
2019-04-14T17:04:15.315Z,15.77
2019-04-14T17:06:45.051Z,16.63
2019-04-14T17:09:17.793Z,18.90
2019-04-14T17:11:47.372Z,19.57
2019-04-14T17:14:15.329Z,15.80
2019-04-14T17:17:06.945Z,16.73
2019-04-14T17:19:58.247Z,18.33
2019-04-14T17:22:32.720Z,19.70
2019-04-14T17:25:24.211Z,19.43
2019-04-14T17:28:18.538Z,20.83
2019-04-14T17:31:02.970Z,17.93
2019-04-14T17:33:37.224Z,19.10
2019-04-14T17:36:43.689Z,20.57
2019-04-14T17:39:22.975Z,16.70
2019-04-14T17:42:23.285Z,21.63
2019-04-14T17:45:11.814Z,18.87
2019-04-14T17:47:54.118Z,20.73
2019-04-14T17:50:41.301Z,21.50
2019-04-14T17:53:23.954Z,20.07
2019-04-14T17:56:18.169Z,18.17
2019-04-14T17:58:55.926Z,17.60
2019-04-14T18:01:47.424Z,17.07
2019-04-14T18:04:48.000Z,21.77
2019-04-14T18:07:23.179Z,19.53
2019-04-14T18:10:01.334Z,18.57
2019-04-14T18:12:37.243Z,19.87
2019-04-14T18:15:35.379Z,20.57
2019-04-14T18:18:22.241Z,18.93
2019-04-14T18:20:54.993Z,17.53
2019-04-14T18:23:24.562Z,20.47
2019-04-14T18:25:54.123Z,19.70
2019-04-14T18:28:42.571Z,20.23
2019-04-14T18:31:33.777Z,17.67
2019-04-14T18:34:17.848Z,25.17
2019-04-14T18:36:59.821Z,21.73
2019-04-14T18:39:42.599Z,21.60
2019-04-14T18:42:31.598Z,20.47
2019-04-14T18:45:13.151Z,20.27
2019-04-14T18:47:48.002Z,23.17
2019-04-14T18:50:33.980Z,20.43
2019-04-14T18:53:10.194Z,26.60
2019-04-14T18:55:57.262Z,22.20
2019-04-14T18:58:54.488Z,20.20
2019-04-14T19:01:26.888Z,22.60
2019-04-14T19:03:56.362Z,24.07
2019-04-14T19:06:25.889Z,23.23
2019-04-14T19:08:55.458Z,21.33
2019-04-14T19:11:52.940Z,21.17
2019-04-14T19:14:31.745Z,22.63
2019-04-14T19:17:05.397Z,21.30
2019-04-14T19:19:36.432Z,20.60
2019-04-14T19:22:06.205Z,19.13
2019-04-14T19:24:35.835Z,20.60
2019-04-14T19:27:05.436Z,20.37
2019-04-14T19:29:34.964Z,18.00
2019-04-14T19:32:04.610Z,19.23
2019-04-14T19:34:34.161Z,19.67
2019-04-14T19:37:03.701Z,20.40
2019-04-14T19:39:33.344Z,16.53
2019-04-14T19:42:02.920Z,19.00
2019-04-14T19:44:32.541Z,19.23
2019-04-14T19:47:02.209Z,20.50
2019-04-14T19:49:31.827Z,18.27
2019-04-14T19:52:01.543Z,21.57
2019-04-14T19:54:31.105Z,19.10
2019-04-14T19:57:00.670Z,22.47
2019-04-14T19:59:30.198Z,19.70
2019-04-14T20:01:59.727Z,20.13
2019-04-14T20:04:29.305Z,19.87
2019-04-14T20:06:58.872Z,21.47
2019-04-14T20:09:30.666Z,19.80
2019-04-14T20:11:59.651Z,21.50
2019-04-14T20:14:29.139Z,17.00
2019-04-14T20:17:20.414Z,16.30
2019-04-14T20:20:17.227Z,16.70
2019-04-14T20:23:14.756Z,15.20
2019-04-14T20:26:04.206Z,13.90
2019-04-14T20:28:41.617Z,16.97
2019-04-14T20:31:35.042Z,16.53
2019-04-14T20:34:04.619Z,19.37
2019-04-14T20:36:34.393Z,16.57
2019-04-14T20:39:05.770Z,16.93
2019-04-14T20:41:35.351Z,13.63
2019-04-14T20:44:04.920Z,14.80
2019-04-14T20:46:34.452Z,12.13
2019-04-14T20:49:04.009Z,14.90
2019-04-14T20:51:33.488Z,12.10
2019-04-14T20:54:03.062Z,12.10
2019-04-14T20:56:32.546Z,11.47
2019-04-14T20:59:02.080Z,12.80
2019-04-14T21:01:33.818Z,13.67
2019-04-14T21:04:13.697Z,11.77
2019-04-14T21:07:08.059Z,13.27
2019-04-14T21:09:52.346Z,13.00
2019-04-14T21:12:28.262Z,15.80
2019-04-14T21:15:25.798Z,12.47
2019-04-14T21:18:05.717Z,12.47
2019-04-14T21:20:57.276Z,13.60
2019-04-14T21:23:54.504Z,10.83
2019-04-14T21:26:58.132Z,10.87
2019-04-14T21:29:46.527Z,9.63
2019-04-14T21:32:22.553Z,9.47
2019-04-14T21:35:14.002Z,10.73
2019-04-14T21:38:02.593Z,14.47
2019-04-14T21:40:51.420Z,10.77
2019-04-14T21:43:21.258Z,8.83
2019-04-14T21:45:50.793Z,8.67
2019-04-14T21:48:20.342Z,9.17
2019-04-14T21:50:49.886Z,9.90
2019-04-14T21:53:19.392Z,9.27
2019-04-14T21:55:48.935Z,8.10
2019-04-14T21:58:49.203Z,9.13
2019-04-14T22:02:11.329Z,8.47
2019-04-14T22:04:58.019Z,8.10
2019-04-14T22:07:45.716Z,8.90
2019-04-14T22:10:34.431Z,7.50
2019-04-14T22:13:03.976Z,7.93
2019-04-14T22:15:33.497Z,8.87
2019-04-14T22:18:03.125Z,8.57
2019-04-14T22:20:32.678Z,8.23
2019-04-14T22:23:03.681Z,8.70
2019-04-14T22:25:33.157Z,8.43
2019-04-14T22:28:02.782Z,8.90
2019-04-14T22:30:32.213Z,8.63
2019-04-14T22:33:02.175Z,7.30
2019-04-14T22:35:31.646Z,9.53
2019-04-14T22:38:01.122Z,9.30
2019-04-14T22:40:30.551Z,8.97
2019-04-14T22:43:00.022Z,9.93
2019-04-14T22:45:29.501Z,8.40
2019-04-14T22:47:58.943Z,9.67
2019-04-14T22:50:28.521Z,8.77
2019-04-14T22:52:57.989Z,8.10
2019-04-14T22:55:27.447Z,9.63
2019-04-14T22:57:56.924Z,7.87
2019-04-14T23:00:40.188Z,9.23
2019-04-14T23:03:27.282Z,9.03
2019-04-14T23:06:18.753Z,8.37
2019-04-14T23:08:58.426Z,8.77
2019-04-14T23:11:56.060Z,9.37
2019-04-14T23:14:50.557Z,8.13
2019-04-14T23:18:11.583Z,9.20
2019-04-14T23:21:05.221Z,8.50
2019-04-14T23:24:37.452Z,11.40
2019-04-14T23:27:27.545Z,10.47
2019-04-14T23:31:09.498Z,11.77
2019-04-14T23:34:00.548Z,10.10
2019-04-14T23:36:44.791Z,10.53
2019-04-14T23:39:34.211Z,10.47
2019-04-14T23:42:18.572Z,11.00
2019-04-14T23:45:12.317Z,11.53
2019-04-14T23:48:03.855Z,10.83
2019-04-14T23:50:45.481Z,12.03
2019-04-14T23:53:33.803Z,11.93
2019-04-14T23:56:26.943Z,11.60
2019-04-14T23:59:22.525Z,12.80
